createdAt,value
2018-08-11T00:00:22.321Z,96214.8
2018-08-11T00:01:24.268Z,96213.6
2018-08-11T00:02:26.442Z,96210.5
2018-08-11T00:03:28.896Z,96209.7
2018-08-11T00:04:31.080Z,96209.9
2018-08-11T00:05:33.252Z,96207.1
2018-08-11T00:06:35.706Z,96203.4
2018-08-11T00:07:38.161Z,96206.7
2018-08-11T00:08:40.338Z,96204.9
2018-08-11T00:09:42.209Z,96200.7
2018-08-11T00:10:44.086Z,96205.4
2018-08-11T00:11:46.232Z,96207.2
2018-08-11T00:12:48.153Z,96203.2
2018-08-11T00:13:50.587Z,96207.8
2018-08-11T00:14:52.497Z,96207.4
2018-08-11T00:15:54.673Z,96207.2
2018-08-11T00:16:56.588Z,96206.6
2018-08-11T00:17:59.035Z,96208.8
2018-08-11T00:19:00.907Z,96210.6
2018-08-11T00:20:02.804Z,96209.6
2018-08-11T00:21:05.245Z,96206.4
2018-08-11T00:22:07.707Z,96207.6
2018-08-11T00:23:09.869Z,96204.1
2018-08-11T00:24:12.036Z,96203.3
2018-08-11T00:25:14.195Z,96203.1
2018-08-11T00:26:16.638Z,96201.5
2018-08-11T00:27:18.799Z,96205.2
2018-08-11T00:28:21.254Z,96206
2018-08-11T00:29:23.699Z,96202.7
2018-08-11T00:30:26.146Z,96203
2018-08-11T00:31:28.328Z,96199.8
2018-08-11T00:32:30.209Z,96200.8
2018-08-11T00:33:32.369Z,96201.7
2018-08-11T00:34:34.830Z,96200.1
2018-08-11T00:35:37.269Z,96204.4
2018-08-11T00:36:39.714Z,96203
2018-08-11T00:37:42.167Z,96207.1
2018-08-11T00:38:44.061Z,96205.9
2018-08-11T00:39:46.223Z,96203.9
2018-08-11T00:40:48.412Z,96199.5
2018-08-11T00:41:50.875Z,96195.9
2018-08-11T00:42:52.804Z,96197.3
2018-08-11T00:43:54.690Z,96196.1
2018-08-11T00:44:56.588Z,96198.6
2018-08-11T00:45:58.766Z,96197.7
2018-08-11T00:47:00.937Z,96201.9
2018-08-11T00:48:03.116Z,96196.1
2018-08-11T00:49:05.295Z,96192.8
2018-08-11T00:50:07.470Z,96193.9
2018-08-11T00:51:09.914Z,96196
2018-08-11T00:52:12.358Z,96195.3
2018-08-11T00:53:14.568Z,96197.9
2018-08-11T00:54:17.007Z,96195
2018-08-11T00:55:19.465Z,96193.2
2018-08-11T00:56:21.911Z,96191.3
2018-08-11T00:57:24.360Z,96194
2018-08-11T00:58:26.516Z,96187.5
2018-08-11T00:59:28.420Z,96188.4
2018-08-11T01:00:30.579Z,96186.4
2018-08-11T01:01:32.775Z,96190.3
2018-08-11T01:02:35.221Z,96191.2
2018-08-11T01:03:37.430Z,96185.2
2018-08-11T01:04:39.882Z,96186.9
2018-08-11T01:05:41.518Z,96182.7
2018-08-11T01:06:43.968Z,96184.6
2018-08-11T01:07:45.869Z,96184.9
2018-08-11T01:08:48.037Z,96185.4
2018-08-11T01:09:50.489Z,96186.9
2018-08-11T01:10:53.121Z,96187.2
2018-08-11T01:11:55.378Z,96184.1
2018-08-11T01:12:57.555Z,96182.3
2018-08-11T01:14:00.017Z,96181.5
2018-08-11T01:15:02.460Z,96179.1
2018-08-11T01:16:04.631Z,96182.3
2018-08-11T01:17:06.802Z,96184.1
2018-08-11T01:18:08.966Z,96181.1
2018-08-11T01:19:11.156Z,96180.2
2018-08-11T01:20:13.349Z,96182.3
2018-08-11T01:21:15.786Z,96183.7
2018-08-11T01:22:17.697Z,96180
2018-08-11T01:23:19.576Z,96182.8
2018-08-11T01:24:22.032Z,96181.9
2018-08-11T01:25:24.215Z,96179.3
2018-08-11T01:26:26.664Z,96180.8
2018-08-11T01:27:29.120Z,96180.9
2018-08-11T01:28:30.777Z,96177
2018-08-11T01:29:33.248Z,96178.8
2018-08-11T01:30:35.691Z,96178.6
2018-08-11T01:31:37.857Z,96178.9
2018-08-11T01:32:39.466Z,96178.6
2018-08-11T01:33:41.920Z,96180.1
2018-08-11T01:34:44.112Z,96178.1
2018-08-11T01:35:46.558Z,96177.4
2018-08-11T01:36:48.742Z,96180.5
2018-08-11T01:37:51.196Z,96177.9
2018-08-11T01:38:53.378Z,96178.3
2018-08-11T01:39:55.856Z,96177.1
2018-08-11T01:40:58.036Z,96178.4
2018-08-11T01:41:59.928Z,96178.3
2018-08-11T01:43:02.098Z,96177.5
2018-08-11T01:44:04.060Z,96178.7
2018-08-11T01:45:06.559Z,96178.3
2018-08-11T01:46:09.024Z,96173.8
2018-08-11T01:47:11.208Z,96176.5
2018-08-11T01:48:12.865Z,96176.4
2018-08-11T01:49:15.038Z,96175.4
2018-08-11T01:50:16.918Z,96173.1
2018-08-11T01:51:19.387Z,96174.7
2018-08-11T01:52:21.832Z,96173.9
2018-08-11T01:53:23.996Z,96171.1
2018-08-11T01:54:25.604Z,96167.8
2018-08-11T01:55:27.763Z,96170.3
2018-08-11T01:56:30.224Z,96168.5
2018-08-11T01:57:32.391Z,96163.7
2018-08-11T01:58:34.257Z,96160.2
2018-08-11T01:59:36.431Z,96164.9
2018-08-11T02:00:38.608Z,96163.5
2018-08-11T02:01:41.044Z,96163.6
2018-08-11T02:02:43.491Z,96165.8
2018-08-11T02:03:45.377Z,96164.8
2018-08-11T02:04:47.833Z,96166.5
2018-08-11T02:05:49.741Z,96165.2
2018-08-11T02:06:51.670Z,96164.8
2018-08-11T02:07:53.858Z,96163.5
2018-08-11T02:08:56.307Z,96165.9
2018-08-11T02:09:58.215Z,96168.3
2018-08-11T02:11:00.377Z,96164.4
2018-08-11T02:12:02.536Z,96166.1
2018-08-11T02:13:04.728Z,96163.9
2018-08-11T02:14:06.653Z,96161.8
2018-08-11T02:15:08.830Z,96155.4
2018-08-11T02:16:11.278Z,96161.1
2018-08-11T02:17:13.183Z,96159.4
2018-08-11T02:18:15.103Z,96154.2
2018-08-11T02:19:17.561Z,96153.6
2018-08-11T02:20:20.003Z,96152.6
2018-08-11T02:21:22.163Z,96147.5
2018-08-11T02:22:24.620Z,96146.4
2018-08-11T02:23:27.056Z,96149
2018-08-11T02:24:28.966Z,96146.5
2018-08-11T02:25:31.155Z,96142.5
2018-08-11T02:26:33.600Z,96144.6
2018-08-11T02:27:35.782Z,96146.3
2018-08-11T02:28:37.932Z,96146.3
2018-08-11T02:29:40.377Z,96139.1
2018-08-11T02:30:42.549Z,96140.8
2018-08-11T02:31:44.997Z,96145.3
2018-08-11T02:32:46.874Z,96144.8
2018-08-11T02:33:49.054Z,96143.3
2018-08-11T02:34:51.233Z,96145.3
2018-08-11T02:35:53.688Z,96142.8
2018-08-11T02:36:55.568Z,96146.6
2018-08-11T02:37:57.752Z,96143.4
2018-08-11T02:39:00.207Z,96143.4
2018-08-11T02:40:02.387Z,96144
2018-08-11T02:41:04.281Z,96142
2018-08-11T02:42:06.735Z,96142.3
2018-08-11T02:43:08.903Z,96138.7
2018-08-11T02:44:11.351Z,96139.9
2018-08-11T02:45:13.841Z,96139.9
2018-08-11T02:46:16.009Z,96136.9
2018-08-11T02:47:18.447Z,96138.2
2018-08-11T02:48:20.610Z,96139.9
2018-08-11T02:49:23.068Z,96135.8
2018-08-11T02:50:24.978Z,96138.3
2018-08-11T02:51:27.169Z,96130.8
2018-08-11T02:52:29.608Z,96133.5
2018-08-11T02:53:32.060Z,96129.9
2018-08-11T02:54:34.201Z,96133.9
2018-08-11T02:55:36.648Z,96134.2
2018-08-11T02:56:39.090Z,96126.8
2018-08-11T02:57:41.281Z,96130.1
2018-08-11T02:58:43.426Z,96125.3
2018-08-11T02:59:45.595Z,96127.1
2018-08-11T03:00:47.522Z,96128.9
2018-08-11T03:01:49.963Z,96128.7
2018-08-11T03:02:52.136Z,96129.2
2018-08-11T03:03:54.583Z,96132.5
2018-08-11T03:04:56.778Z,96133
2018-08-11T03:05:59.235Z,96133.1
2018-08-11T03:07:01.160Z,96134.4
2018-08-11T03:08:03.606Z,96136
2018-08-11T03:09:05.777Z,96135.1
2018-08-11T03:10:08.231Z,96134.7
2018-08-11T03:11:10.413Z,96134
2018-08-11T03:12:12.852Z,96134
2018-08-11T03:13:15.022Z,96134.4
2018-08-11T03:14:17.468Z,96132.3
2018-08-11T03:15:19.665Z,96132.1
2018-08-11T03:16:21.853Z,96133.6
2018-08-11T03:17:23.750Z,96130.3
2018-08-11T03:18:25.673Z,96131.8
2018-08-11T03:19:27.817Z,96134.5
2018-08-11T03:20:29.997Z,96130.3
2018-08-11T03:21:32.453Z,96132.7
2018-08-11T03:22:34.902Z,96135.4
2018-08-11T03:23:37.084Z,96135.8
2018-08-11T03:24:38.952Z,96134.9
2018-08-11T03:25:41.111Z,96138.8
2018-08-11T03:26:43.024Z,96134.2
2018-08-11T03:27:44.891Z,96139.8
2018-08-11T03:28:46.768Z,96137.4
2018-08-11T03:29:48.936Z,96138.5
2018-08-11T03:30:51.377Z,96135.7
2018-08-11T03:31:53.559Z,96140.8
2018-08-11T03:32:55.997Z,96140.4
2018-08-11T03:33:58.177Z,96136.3
2018-08-11T03:35:00.348Z,96137.1
2018-08-11T03:36:02.522Z,96139.1
2018-08-11T03:37:04.677Z,96139.9
2018-08-11T03:38:07.132Z,96137.3
2018-08-11T03:39:09.347Z,96138.9
2018-08-11T03:40:11.517Z,96137.2
2018-08-11T03:41:13.680Z,96140.2
2018-08-11T03:42:15.860Z,96141
2018-08-11T03:43:17.765Z,96144
2018-08-11T03:44:19.648Z,96141.8
2018-08-11T03:45:22.090Z,96144
2018-08-11T03:46:23.974Z,96141.8
2018-08-11T03:47:25.895Z,96146.4
2018-08-11T03:48:28.357Z,96146.7
2018-08-11T03:49:30.260Z,96145.3
2018-08-11T03:50:32.700Z,96147.4
2018-08-11T03:51:35.152Z,96143.8
2018-08-11T03:52:38.001Z,96151.1
2018-08-11T03:53:40.512Z,96148.7
2018-08-11T03:54:42.688Z,96153.8
2018-08-11T03:55:45.137Z,96154.4
2018-08-11T03:56:47.590Z,96156.1
2018-08-11T03:57:50.042Z,96160.8
2018-08-11T03:58:52.476Z,96159.8
2018-08-11T03:59:54.659Z,96162.3
2018-08-11T04:00:56.837Z,96162.5
2018-08-11T04:01:59.290Z,96159.2
2018-08-11T04:03:01.448Z,96164
2018-08-11T04:04:03.327Z,96163
2018-08-11T04:05:05.547Z,96161.8
2018-08-11T04:06:08.000Z,96161.3
2018-08-11T04:07:10.177Z,96159.2
2018-08-11T04:08:12.639Z,96160.4
2018-08-11T04:09:15.086Z,96164.4
2018-08-11T04:10:17.245Z,96163.9
2018-08-11T04:11:19.686Z,96165.7
2018-08-11T04:12:21.839Z,96165.5
2018-08-11T04:13:24.301Z,96164.9
2018-08-11T04:14:25.662Z,96169.6
2018-08-11T04:15:27.859Z,96168.7
2018-08-11T04:16:30.048Z,96167.5
2018-08-11T04:17:32.225Z,96162.9
2018-08-11T04:18:33.936Z,96163.9
2018-08-11T04:19:36.381Z,96166.2
2018-08-11T04:20:38.553Z,96165.3
2018-08-11T04:21:40.476Z,96164.4
2018-08-11T04:22:42.652Z,96163.4
2018-08-11T04:23:45.108Z,96166
2018-08-11T04:24:47.561Z,96165.3
2018-08-11T04:25:50.007Z,96163.4
2018-08-11T04:26:52.461Z,96165
2018-08-11T04:27:54.621Z,96163.6
2018-08-11T04:28:57.067Z,96161.6
2018-08-11T04:29:59.249Z,96163.5
2018-08-11T04:31:01.426Z,96161.5
2018-08-11T04:32:03.880Z,96163
2018-08-11T04:33:06.333Z,96163.8
2018-08-11T04:34:08.777Z,96163.5
2018-08-11T04:35:11.215Z,96162.8
2018-08-11T04:36:13.125Z,96168.4
2018-08-11T04:37:15.568Z,96166.6
2018-08-11T04:38:18.023Z,96168.6
2018-08-11T04:39:20.184Z,96168.1
2018-08-11T04:40:22.622Z,96168.8
2018-08-11T04:41:24.795Z,96167.4
2018-08-11T04:42:26.988Z,96169.8
2018-08-11T04:43:29.117Z,96170.5
2018-08-11T04:44:31.021Z,96172.6
2018-08-11T04:45:33.191Z,96171.8
2018-08-11T04:46:35.341Z,96178.7
2018-08-11T04:47:37.525Z,96173.9
2018-08-11T04:48:39.690Z,96177.1
2018-08-11T04:49:42.136Z,96179
2018-08-11T04:50:44.336Z,96175.8
2018-08-11T04:51:46.501Z,96177.4
2018-08-11T04:52:48.952Z,96178.5
2018-08-11T04:53:51.148Z,96171.6
2018-08-11T04:54:53.591Z,96174.6
2018-08-11T04:55:56.037Z,96175.2
2018-08-11T04:56:58.498Z,96177.9
2018-08-11T04:58:00.397Z,96175.8
2018-08-11T04:59:02.844Z,96177.8
2018-08-11T05:00:05.284Z,96176.6
2018-08-11T05:01:07.194Z,96175.8
2018-08-11T05:02:09.691Z,96175.5
2018-08-11T05:03:11.875Z,96179.4
2018-08-11T05:04:14.055Z,96177.1
2018-08-11T05:05:16.223Z,96180.7
2018-08-11T05:06:18.393Z,96175.2
2018-08-11T05:07:20.848Z,96175.1
2018-08-11T05:08:23.303Z,96176.9
2018-08-11T05:09:25.748Z,96177.4
2018-08-11T05:10:28.202Z,96173.6
2018-08-11T05:11:30.642Z,96177.8
2018-08-11T05:12:33.090Z,96181.5
2018-08-11T05:13:35.008Z,96180.4
2018-08-11T05:14:37.177Z,96178.2
2018-08-11T05:15:39.362Z,96180.1
2018-08-11T05:16:41.814Z,96182.4
2018-08-11T05:17:44.246Z,96184.4
2018-08-11T05:18:46.708Z,96181.7
2018-08-11T05:19:48.956Z,96184.1
2018-08-11T05:20:51.173Z,96187.8
2018-08-11T05:21:53.326Z,96190.4
2018-08-11T05:22:55.764Z,96190
2018-08-11T05:23:57.664Z,96192
2018-08-11T05:24:59.815Z,96194.7
2018-08-11T05:26:02.008Z,96192.4
2018-08-11T05:27:04.458Z,96195.8
2018-08-11T05:28:06.636Z,96196.7
2018-08-11T05:29:08.815Z,96196.8
2018-08-11T05:30:11.265Z,96199.6
2018-08-11T05:31:13.161Z,96197.7
2018-08-11T05:32:15.600Z,96202
2018-08-11T05:33:18.030Z,96204.7
2018-08-11T05:34:20.726Z,96206
2018-08-11T05:35:22.915Z,96206.3
2018-08-11T05:36:25.091Z,96203.8
2018-08-11T05:37:27.253Z,96202.8
2018-08-11T05:38:29.441Z,96202.6
2018-08-11T05:39:31.627Z,96204.3
2018-08-11T05:40:34.091Z,96204.6
2018-08-11T05:41:36.115Z,96206.3
2018-08-11T05:42:38.416Z,96207.7
2018-08-11T05:43:40.860Z,96207.5
2018-08-11T05:44:43.323Z,96210.6
2018-08-11T05:45:45.504Z,96210
2018-08-11T05:46:47.971Z,96210.1
2018-08-11T05:47:49.603Z,96210.9
2018-08-11T05:48:52.057Z,96212.5
2018-08-11T05:49:54.503Z,96213.4
2018-08-11T05:50:56.961Z,96215.9
2018-08-11T05:51:59.398Z,96216.9
2018-08-11T05:53:01.302Z,96214.7
2018-08-11T05:54:03.774Z,96215.2
2018-08-11T05:55:06.026Z,96217
2018-08-11T05:56:08.240Z,96218
2018-08-11T05:57:10.411Z,96218.9
2018-08-11T05:58:12.049Z,96219
2018-08-11T05:59:14.232Z,96224.2
2018-08-11T06:00:16.138Z,96222.2
2018-08-11T06:01:18.307Z,96223.3
2018-08-11T06:02:20.489Z,96223.6
2018-08-11T06:03:22.698Z,96227.9
2018-08-11T06:04:25.149Z,96227
2018-08-11T06:05:26.789Z,96230.3
2018-08-11T06:06:28.699Z,96233.7
2018-08-11T06:07:31.156Z,96233.9
2018-08-11T06:08:33.301Z,96231.9
2018-08-11T06:09:35.833Z,96234.6
2018-08-11T06:10:38.333Z,96231.9
2018-08-11T06:11:40.938Z,96232.9
2018-08-11T06:12:43.109Z,96228.1
2018-08-11T06:13:45.556Z,96230.3
2018-08-11T06:14:48.007Z,96228.5
2018-08-11T06:15:50.151Z,96232.3
2018-08-11T06:16:52.604Z,96233
2018-08-11T06:17:54.485Z,96231.6
2018-08-11T06:18:56.375Z,96231.1
2018-08-11T06:19:58.826Z,96230.2
2018-08-11T06:21:00.785Z,96233.6
2018-08-11T06:22:03.039Z,96229.7
2018-08-11T06:23:05.202Z,96234.5
2018-08-11T06:24:07.648Z,96233.1
2018-08-11T06:25:10.121Z,96234.6
2018-08-11T06:26:12.284Z,96235.7
2018-08-11T06:27:14.174Z,96234.1
2018-08-11T06:28:16.633Z,96237.3
2018-08-11T06:29:19.077Z,96236.6
2018-08-11T06:30:21.535Z,96238.2
2018-08-11T06:31:23.936Z,96238.7
2018-08-11T06:32:26.189Z,96238.5
2018-08-11T06:33:28.632Z,96240.2
2018-08-11T06:34:31.086Z,96239.7
2018-08-11T06:35:32.957Z,96241.2
2018-08-11T06:36:35.139Z,96245.2
2018-08-11T06:37:37.043Z,96247.3
2018-08-11T06:38:39.219Z,96256.2
2018-08-11T06:39:41.667Z,96255.3
2018-08-11T06:40:44.270Z,96251.9
2018-08-11T06:41:45.922Z,96255.6
2018-08-11T06:42:48.377Z,96252.4
2018-08-11T06:43:50.307Z,96255.7
2018-08-11T06:44:52.471Z,96247.2
2018-08-11T06:45:54.655Z,96248.3
2018-08-11T06:46:57.304Z,96257.2
2018-08-11T06:47:59.467Z,96254.3
2018-08-11T06:49:01.346Z,96250.6
2018-08-11T06:50:03.789Z,96252.4
2018-08-11T06:51:05.417Z,96255.3
2018-08-11T06:52:07.874Z,96250.1
2018-08-11T06:53:10.050Z,96251.4
2018-08-11T06:54:12.510Z,96257.2
2018-08-11T06:55:14.956Z,96252.7
2018-08-11T06:56:17.132Z,96250.1
2018-08-11T06:57:19.286Z,96252.4
2018-08-11T06:58:20.898Z,96246.3
2018-08-11T06:59:23.082Z,96251.9
2018-08-11T07:00:25.536Z,96249.8
2018-08-11T07:01:27.705Z,96251.6
2018-08-11T07:02:29.326Z,96252.6
2018-08-11T07:03:31.521Z,96256.9
2018-08-11T07:04:33.968Z,96253.1
2018-08-11T07:05:36.134Z,96255.9
2018-08-11T07:06:38.338Z,96253.3
2018-08-11T07:07:40.525Z,96254.8
2018-08-11T07:08:42.382Z,96257.6
2018-08-11T07:09:44.547Z,96259
2018-08-11T07:10:46.734Z,96255.3
2018-08-11T07:11:48.917Z,96259.3
2018-08-11T07:12:51.385Z,96254.8
2018-08-11T07:13:53.839Z,96252.3
2018-08-11T07:14:56.295Z,96255.4
2018-08-11T07:15:58.753Z,96253.2
2018-08-11T07:17:01.214Z,96255.9
2018-08-11T07:18:03.654Z,96251.2
2018-08-11T07:19:06.118Z,96253.9
2018-08-11T07:20:08.566Z,96251.3
2018-08-11T07:21:11.112Z,96254.2
2018-08-11T07:22:13.298Z,96247.7
2018-08-11T07:23:15.487Z,96247.4
2018-08-11T07:24:17.687Z,96258.2
2018-08-11T07:25:20.136Z,96258.1
2018-08-11T07:26:22.454Z,96259.4
2018-08-11T07:27:24.603Z,96262.5
2018-08-11T07:28:26.796Z,96265.2
2018-08-11T07:29:29.005Z,96264.1
2018-08-11T07:30:31.166Z,96260.4
2018-08-11T07:31:33.317Z,96265
2018-08-11T07:32:35.493Z,96266.1
2018-08-11T07:33:37.946Z,96265.9
2018-08-11T07:34:40.383Z,96267.4
2018-08-11T07:35:42.869Z,96266.7
2018-08-11T07:36:45.737Z,96262.3
2018-08-11T07:37:48.981Z,96265.5
2018-08-11T07:38:51.637Z,96268.5
2018-08-11T07:39:53.973Z,96265.7
2018-08-11T07:40:56.477Z,96267
2018-08-11T07:41:58.362Z,96269.7
2018-08-11T07:43:00.807Z,96267.4
2018-08-11T07:44:03.261Z,96272.3
2018-08-11T07:45:05.439Z,96272
2018-08-11T07:46:07.621Z,96269.2
2018-08-11T07:47:10.060Z,96270.7
2018-08-11T07:48:12.515Z,96272
2018-08-11T07:49:14.680Z,96271.8
2018-08-11T07:50:16.731Z,96273.3
2018-08-11T07:51:18.643Z,96270.5
2018-08-11T07:52:20.542Z,96270.3
2018-08-11T07:53:22.991Z,96272.3
2018-08-11T07:54:25.434Z,96269.6
2018-08-11T07:55:27.612Z,96271.3
2018-08-11T07:56:29.501Z,96270
2018-08-11T07:57:31.945Z,96277.1
2018-08-11T07:58:34.386Z,96275.1
2018-08-11T07:59:36.837Z,96272.6
2018-08-11T08:00:39.283Z,96275.3
2018-08-11T08:01:41.739Z,96273.9
2018-08-11T08:02:44.186Z,96278
2018-08-11T08:03:46.635Z,96278.1
2018-08-11T08:04:48.816Z,96278
2018-08-11T08:05:51.271Z,96279.8
2018-08-11T08:06:53.741Z,96283.1
2018-08-11T08:07:55.464Z,96282.4
2018-08-11T08:08:57.609Z,96283.4
2018-08-11T08:09:59.794Z,96279.5
2018-08-11T08:11:01.986Z,96282.1
2018-08-11T08:12:04.155Z,96282.9
2018-08-11T08:13:06.331Z,96285.9
2018-08-11T08:14:08.232Z,96285.4
2018-08-11T08:15:10.413Z,96288.5
2018-08-11T08:16:12.867Z,96286.4
2018-08-11T08:17:15.324Z,96283.4
2018-08-11T08:18:17.773Z,96284.1
2018-08-11T08:19:19.967Z,96285.2
2018-08-11T08:20:22.160Z,96274.5
2018-08-11T08:21:24.335Z,96279.8
2018-08-11T08:22:26.528Z,96278.8
2018-08-11T08:23:28.706Z,96281.8
2018-08-11T08:24:31.206Z,96283.4
2018-08-11T08:25:33.360Z,96286.2
2018-08-11T08:26:36.646Z,96289.6
2018-08-11T08:27:38.629Z,96292.6
2018-08-11T08:28:40.527Z,96289.3
2018-08-11T08:29:42.432Z,96289
2018-08-11T08:30:44.600Z,96290.1
2018-08-11T08:31:46.506Z,96291.1
2018-08-11T08:32:48.701Z,96291.5
2018-08-11T08:33:51.427Z,96292.2
2018-08-11T08:34:53.596Z,96294.3
2018-08-11T08:35:55.754Z,96292.9
2018-08-11T08:36:57.936Z,96294.8
2018-08-11T08:38:00.118Z,96300.8
2018-08-11T08:39:02.588Z,96299.9
2018-08-11T08:40:04.746Z,96296.5
2018-08-11T08:41:06.925Z,96298.5
2018-08-11T08:42:08.812Z,96295
2018-08-11T08:43:11.007Z,96297
2018-08-11T08:44:13.190Z,96296.6
2018-08-11T08:45:15.102Z,96297
2018-08-11T08:46:17.556Z,96295.5
2018-08-11T08:47:19.791Z,96298
2018-08-11T08:48:22.302Z,96294.3
2018-08-11T08:49:24.490Z,96293.2
2018-08-11T08:50:26.368Z,96296.3
2018-08-11T08:51:28.582Z,96297.5
2018-08-11T08:52:30.780Z,96298
2018-08-11T08:53:33.001Z,96292.6
2018-08-11T08:54:35.472Z,96298.6
2018-08-11T08:55:37.921Z,96294.8
2018-08-11T08:56:40.395Z,96293.5
2018-08-11T08:57:42.561Z,96292.4
2018-08-11T08:58:44.767Z,96288.8
2018-08-11T08:59:47.235Z,96290.9
2018-08-11T09:00:49.687Z,96293.7
2018-08-11T09:01:51.862Z,96288.7
2018-08-11T09:02:54.036Z,96287.7
2018-08-11T09:03:56.485Z,96289.3
2018-08-11T09:04:59.068Z,96289.7
2018-08-11T09:06:01.195Z,96293.6
2018-08-11T09:07:03.079Z,96290.1
2018-08-11T09:08:05.230Z,96288.5
2018-08-11T09:09:07.687Z,96293
2018-08-11T09:10:09.562Z,96290.9
2018-08-11T09:11:12.010Z,96286.8
2018-08-11T09:12:14.196Z,96283
2018-08-11T09:13:16.381Z,96283.1
2018-08-11T09:14:18.562Z,96283.8
2018-08-11T09:15:20.456Z,96286.8
2018-08-11T09:16:22.904Z,96285.8
2018-08-11T09:17:25.352Z,96288.8
2018-08-11T09:18:27.232Z,96292.7
2018-08-11T09:19:29.937Z,96295.3
2018-08-11T09:20:32.211Z,96291.2
2018-08-11T09:21:34.381Z,96288.7
2018-08-11T09:22:36.551Z,96289.4
2018-08-11T09:23:38.997Z,96292.1
2018-08-11T09:24:41.184Z,96289.2
2018-08-11T09:25:43.326Z,96293
2018-08-11T09:26:45.502Z,96292
2018-08-11T09:27:47.950Z,96290.1
2018-08-11T09:28:49.892Z,96293
2018-08-11T09:29:52.347Z,96293.1
2018-08-11T09:30:54.531Z,96297.2
2018-08-11T09:31:56.679Z,96286.5
2018-08-11T09:32:58.592Z,96287.6
2018-08-11T09:34:00.767Z,96288.9
2018-08-11T09:35:03.213Z,96289.7
2018-08-11T09:36:05.385Z,96290.3
2018-08-11T09:37:07.557Z,96288
2018-08-11T09:38:09.742Z,96294
2018-08-11T09:39:11.888Z,96289.1
2018-08-11T09:40:14.348Z,96289.4
2018-08-11T09:41:16.800Z,96291.1
2018-08-11T09:42:19.251Z,96288.6
2018-08-11T09:43:20.914Z,96287.5
2018-08-11T09:44:23.359Z,96287.5
2018-08-11T09:45:25.506Z,96286.8
2018-08-11T09:46:27.414Z,96288.9
2018-08-11T09:47:29.591Z,96290.5
2018-08-11T09:48:32.038Z,96294
2018-08-11T09:49:33.976Z,96290.4
2018-08-11T09:50:36.146Z,96288.3
2018-08-11T09:51:38.057Z,96285.3
2018-08-11T09:52:40.499Z,96280.4
2018-08-11T09:53:42.936Z,96283.6
2018-08-11T09:54:45.391Z,96279.3
2018-08-11T09:55:47.569Z,96279.2
2018-08-11T09:56:49.755Z,96277.4
2018-08-11T09:57:51.945Z,96279.5
2018-08-11T09:58:54.244Z,96282.6
2018-08-11T09:59:56.128Z,96280.4
2018-08-11T10:00:58.599Z,96276.4
2018-08-11T10:02:00.767Z,96278.4
2018-08-11T10:03:02.960Z,96281.7
2018-08-11T10:04:05.117Z,96281.4
2018-08-11T10:05:07.477Z,96275.2
2018-08-11T10:06:09.814Z,96278.4
2018-08-11T10:07:11.702Z,96274.1
2018-08-11T10:08:13.869Z,96277
2018-08-11T10:09:16.041Z,96275.4
2018-08-11T10:10:18.499Z,96273.6
2018-08-11T10:11:20.962Z,96273.6
2018-08-11T10:12:23.157Z,96273.7
2018-08-11T10:13:25.068Z,96275.5
2018-08-11T10:14:27.509Z,96272.1
2018-08-11T10:15:29.414Z,96276.5
2018-08-11T10:16:31.601Z,96271.2
2018-08-11T10:17:33.778Z,96269.6
2018-08-11T10:18:36.662Z,96272.6
2018-08-11T10:19:39.217Z,96270.6
2018-08-11T10:20:41.688Z,96268.5
2018-08-11T10:21:43.866Z,96269.1
2018-08-11T10:22:46.056Z,96268.1
2018-08-11T10:23:48.488Z,96269.1
2018-08-11T10:24:50.932Z,96269.3
2018-08-11T10:25:52.840Z,96271.2
2018-08-11T10:26:55.276Z,96263.3
2018-08-11T10:27:57.727Z,96262.7
2018-08-11T10:29:00.172Z,96258.2
2018-08-11T10:30:02.057Z,96257.5
2018-08-11T10:31:04.235Z,96262.2
2018-08-11T10:32:06.686Z,96259.5
2018-08-11T10:33:08.881Z,96264.6
2018-08-11T10:34:11.320Z,96265.1
2018-08-11T10:35:13.768Z,96260.2
2018-08-11T10:36:16.207Z,96262.2
2018-08-11T10:37:18.666Z,96256.4
2018-08-11T10:38:21.118Z,96258.2
2018-08-11T10:39:23.572Z,96254.6
2018-08-11T10:40:26.043Z,96252.6
2018-08-11T10:41:28.507Z,96254.1
2018-08-11T10:42:30.698Z,96257.2
2018-08-11T10:43:32.873Z,96254.3
2018-08-11T10:44:34.766Z,96258.8
2018-08-11T10:45:36.668Z,96258.4
2018-08-11T10:46:38.856Z,96256.1
2018-08-11T10:47:41.301Z,96256.1
2018-08-11T10:48:43.752Z,96254
2018-08-11T10:49:46.217Z,96255.2
2018-08-11T10:50:48.662Z,96250
2018-08-11T10:51:50.821Z,96246.7
2018-08-11T10:52:53.263Z,96249.2
2018-08-11T10:53:55.144Z,96250
2018-08-11T10:54:57.333Z,96247.9
2018-08-11T10:55:59.401Z,96245.2
2018-08-11T10:57:01.623Z,96244.7
2018-08-11T10:58:03.807Z,96247.8
2018-08-11T10:59:06.248Z,96245
2018-08-11T11:00:08.717Z,96243.5
2018-08-11T11:01:11.340Z,96243.5
2018-08-11T11:02:13.337Z,96246.5
2018-08-11T11:03:15.785Z,96248.5
2018-08-11T11:04:18.238Z,96248.4
2018-08-11T11:05:20.407Z,96245.2
2018-08-11T11:06:22.306Z,96245.9
2018-08-11T11:07:24.286Z,96244.5
2018-08-11T11:08:27.091Z,96243.9
2018-08-11T11:09:29.728Z,96246.7
2018-08-11T11:10:31.911Z,96240.9
2018-08-11T11:11:34.351Z,96240.9
2018-08-11T11:12:36.256Z,96233.9
2018-08-11T11:13:38.389Z,96233.4
2018-08-11T11:14:40.320Z,96227.2
2018-08-11T11:15:42.475Z,96229.9
2018-08-11T11:16:44.377Z,96230
2018-08-11T11:17:46.820Z,96233.2
2018-08-11T11:18:49.011Z,96226.4
2018-08-11T11:19:51.460Z,96225.5
2018-08-11T11:20:53.812Z,96226.4
2018-08-11T11:21:55.736Z,96225.1
2018-08-11T11:22:58.180Z,96213.9
2018-08-11T11:24:00.358Z,96219.5
2018-08-11T11:25:02.820Z,96216.7
2018-08-11T11:26:05.267Z,96217.5
2018-08-11T11:27:07.444Z,96220.2
2018-08-11T11:28:09.642Z,96220.5
2018-08-11T11:29:12.097Z,96219.7
2018-08-11T11:30:14.538Z,96224.6
2018-08-11T11:31:16.715Z,96224.3
2018-08-11T11:32:19.172Z,96225.2
2018-08-11T11:33:21.611Z,96219.8
2018-08-11T11:34:23.497Z,96224.4
2018-08-11T11:35:25.683Z,96218.5
2018-08-11T11:36:27.616Z,96217.6
2018-08-11T11:37:30.093Z,96219.6
2018-08-11T11:38:32.006Z,96219
2018-08-11T11:39:34.180Z,96213.7
2018-08-11T11:40:36.360Z,96214.5
2018-08-11T11:41:38.820Z,96224.5
2018-08-11T11:42:40.775Z,96230.7
2018-08-11T11:43:42.974Z,96223.9
2018-08-11T11:44:45.161Z,96217.3
2018-08-11T11:45:47.611Z,96216.5
2018-08-11T11:46:50.062Z,96219.9
2018-08-11T11:47:51.685Z,96216.7
2018-08-11T11:48:54.127Z,96212.2
2018-08-11T11:49:56.305Z,96214.7
2018-08-11T11:50:58.477Z,96214.4
2018-08-11T11:52:00.398Z,96214.8
2018-08-11T11:53:02.837Z,96211.2
2018-08-11T11:54:05.019Z,96206.5
2018-08-11T11:55:07.217Z,96206.8
2018-08-11T11:56:09.674Z,96204.4
2018-08-11T11:57:11.851Z,96202.8
2018-08-11T11:58:14.300Z,96201.6
2018-08-11T11:59:16.498Z,96204.7
2018-08-11T12:00:18.640Z,96211.5
2018-08-11T12:01:20.524Z,96205.1
2018-08-11T12:02:22.982Z,96206.2
2018-08-11T12:03:25.167Z,96211.7
2018-08-11T12:04:27.630Z,96207.3
2018-08-11T12:05:29.545Z,96208
2018-08-11T12:06:31.722Z,96213.9
2018-08-11T12:07:34.163Z,96218
2018-08-11T12:08:35.783Z,96213.3
2018-08-11T12:09:37.959Z,96217.8
2018-08-11T12:10:40.151Z,96216.8
2018-08-11T12:11:42.057Z,96221.4
2018-08-11T12:12:44.211Z,96217.3
2018-08-11T12:13:46.396Z,96215.6
2018-08-11T12:14:48.588Z,96216.9
2018-08-11T12:15:50.748Z,96208.7
2018-08-11T12:16:52.915Z,96208.2
2018-08-11T12:17:55.104Z,96202.7
2018-08-11T12:18:57.578Z,96205.8
2018-08-11T12:19:59.438Z,96204.2
2018-08-11T12:21:01.633Z,96202.1
2018-08-11T12:22:03.817Z,96194.5
2018-08-11T12:23:06.001Z,96195.7
2018-08-11T12:24:08.175Z,96196.1
2018-08-11T12:25:10.057Z,96188.7
2018-08-11T12:26:12.518Z,96184.8
2018-08-11T12:27:14.960Z,96184.4
2018-08-11T12:28:16.886Z,96192
2018-08-11T12:29:18.801Z,96188.9
2018-08-11T12:30:21.286Z,96185.4
2018-08-11T12:31:23.726Z,96186.8
2018-08-11T12:32:25.628Z,96188.5
2018-08-11T12:33:28.090Z,96187.5
2018-08-11T12:34:30.544Z,96186.5
2018-08-11T12:35:32.998Z,96185.6
2018-08-11T12:36:35.465Z,96186.7